Sanlucar de Barrameda, Spain
Current Conditions -  °F | °C
As of 9:00 AM on Wednesday 26 Nov 2014 (Local Time) from LERT Reporting Station
Clear Clear  
Wind Chill: 54°   Ceiling: Unl
Heat Index: 54°   Visibility: 6mi
Dew Point: 54°   Wind: 1mph
Humidity: 100%   Direction: NA
Pressure: 29.97"   Gusts: NA
Location:  36.78°N, 6.35°W
Report Text: LERT 260800Z VRB01KT 9000 NSC 12/12 Q1015 NOSIG
Loading
Personal Weather Stations






























Interactive Weather Map New forecast layout! Learn more

10-Day Weather Forecast

Advertisements
Track Severe Weather on mobile